createdAt,value
2022-10-17T00:04:07.202Z,63.53
2022-10-17T00:11:02.233Z,63.10
2022-10-17T00:26:52.130Z,62.96
2022-10-17T00:51:24.574Z,62.33
2022-10-17T00:53:52.775Z,62.26
2022-10-17T00:56:20.917Z,62.16
2022-10-17T00:58:49.037Z,62.18
2022-10-17T01:01:17.151Z,62.14
2022-10-17T01:03:45.227Z,62.06
2022-10-17T01:06:13.229Z,62.31
2022-10-17T01:08:42.636Z,62.51
2022-10-17T01:11:17.257Z,62.48
2022-10-17T01:13:50.356Z,62.56
2022-10-17T01:16:19.855Z,62.52
2022-10-17T01:18:53.944Z,62.58
2022-10-17T01:21:47.846Z,62.59
2022-10-17T01:24:38.238Z,62.58
2022-10-17T01:27:27.552Z,62.29
2022-10-17T01:30:44.673Z,62.09
2022-10-17T01:33:15.286Z,61.65
2022-10-17T01:35:46.626Z,61.42
2022-10-17T01:38:17.138Z,61.19
2022-10-17T01:40:47.618Z,60.96
2022-10-17T01:43:18.611Z,60.87
2022-10-17T01:45:48.758Z,60.67
2022-10-17T01:48:20.233Z,60.31
2022-10-17T01:50:49.802Z,60.14
2022-10-17T01:53:20.213Z,59.96
2022-10-17T01:55:48.543Z,59.89
2022-10-17T01:58:21.541Z,59.75
2022-10-17T02:00:49.593Z,59.56
2022-10-17T02:03:20.331Z,59.64
2022-10-17T02:05:48.393Z,59.49
2022-10-17T02:08:25.591Z,59.64
2022-10-17T02:10:56.349Z,59.70
2022-10-17T02:13:28.569Z,59.74
2022-10-17T02:16:02.575Z,59.61
2022-10-17T02:18:53.772Z,59.51
2022-10-17T02:21:25.343Z,59.60
2022-10-17T02:23:55.994Z,59.68
2022-10-17T02:26:27.221Z,59.76
2022-10-17T02:29:00.135Z,59.70
2022-10-17T02:31:29.861Z,59.79
2022-10-17T02:34:00.361Z,59.66
2022-10-17T02:36:30.410Z,59.53
2022-10-17T02:38:59.805Z,59.53
2022-10-17T02:44:02.482Z,59.45
2022-10-17T02:46:30.873Z,59.54
2022-10-17T02:49:02.303Z,59.41
2022-10-17T02:51:36.645Z,59.54
2022-10-17T02:54:07.153Z,59.43
2022-10-17T02:56:40.036Z,59.73
2022-10-17T02:59:08.089Z,59.40
2022-10-17T03:01:36.694Z,59.43
2022-10-17T03:04:08.549Z,59.42
2022-10-17T03:06:36.977Z,59.48
2022-10-17T03:09:05.189Z,59.65
2022-10-17T03:11:33.279Z,59.55
2022-10-17T03:14:04.317Z,59.59
2022-10-17T03:16:33.532Z,59.50
2022-10-17T03:19:01.680Z,59.57
2022-10-17T03:21:31.283Z,59.49
2022-10-17T03:23:59.466Z,59.57
2022-10-17T03:26:27.548Z,59.91
2022-10-17T03:28:55.680Z,60.08
2022-10-17T03:31:24.701Z,60.09
2022-10-17T03:33:53.714Z,60.41
2022-10-17T03:36:21.803Z,60.53
2022-10-17T03:38:54.686Z,60.57
2022-10-17T03:41:23.501Z,60.53
2022-10-17T03:43:53.410Z,60.88
2022-10-17T03:46:21.856Z,60.84
2022-10-17T03:48:50.108Z,60.81
2022-10-17T03:51:18.067Z,61.09
2022-10-17T03:53:52.706Z,61.31
2022-10-17T03:56:22.111Z,61.54
2022-10-17T03:58:58.825Z,61.79
2022-10-17T04:01:28.266Z,61.65
2022-10-17T04:03:57.360Z,61.74
2022-10-17T04:06:28.401Z,61.66
2022-10-17T04:08:57.784Z,61.88
2022-10-17T04:11:36.211Z,61.85
2022-10-17T04:14:05.069Z,61.65
2022-10-17T04:16:33.260Z,61.55
2022-10-17T04:19:04.628Z,61.41
2022-10-17T04:21:38.471Z,61.49
2022-10-17T04:24:11.421Z,61.60
2022-10-17T04:27:04.761Z,61.48
2022-10-17T04:29:35.119Z,61.35
2022-10-17T04:32:08.513Z,61.36
2022-10-17T04:34:50.086Z,61.16
2022-10-17T04:37:19.703Z,61.26
2022-10-17T04:39:51.118Z,61.22
2022-10-17T04:42:19.707Z,61.24
2022-10-17T04:44:48.101Z,61.22
2022-10-17T04:47:18.801Z,61.18
2022-10-17T04:49:47.701Z,61.15
2022-10-17T04:52:17.358Z,61.26
2022-10-17T04:54:46.920Z,61.00
2022-10-17T04:57:16.997Z,61.15
2022-10-17T04:59:53.149Z,61.11
2022-10-17T05:02:30.167Z,61.00
2022-10-17T05:04:58.858Z,60.87
2022-10-17T05:07:27.020Z,60.60
2022-10-17T05:09:54.988Z,60.71
2022-10-17T05:12:25.796Z,60.67
2022-10-17T05:14:54.963Z,60.83
2022-10-17T05:17:25.649Z,60.91
2022-10-17T05:19:54.104Z,60.72
2022-10-17T05:22:22.151Z,60.94
2022-10-17T05:24:50.450Z,60.71
2022-10-17T05:27:18.585Z,60.68
2022-10-17T05:29:48.045Z,60.66
2022-10-17T05:32:24.756Z,60.89
2022-10-17T05:34:55.243Z,60.83
2022-10-17T05:37:25.100Z,60.67
2022-10-17T05:39:56.105Z,60.67
2022-10-17T05:42:25.243Z,60.65
2022-10-17T05:44:54.914Z,60.60
2022-10-17T05:47:23.225Z,60.65
2022-10-17T05:49:52.815Z,60.60
2022-10-17T05:52:38.829Z,60.55
2022-10-17T05:55:12.045Z,60.64
2022-10-17T05:57:40.990Z,60.52
2022-10-17T06:00:15.988Z,60.64
2022-10-17T06:02:45.969Z,60.52
2022-10-17T06:05:15.920Z,60.51
2022-10-17T06:07:44.603Z,60.30
2022-10-17T06:10:16.384Z,60.38
2022-10-17T06:12:44.577Z,60.24
2022-10-17T06:15:12.671Z,60.30
2022-10-17T06:17:45.932Z,60.21
2022-10-17T06:20:14.009Z,60.03
2022-10-17T06:22:41.999Z,60.09
2022-10-17T06:25:16.031Z,60.13
2022-10-17T06:27:44.031Z,60.15
2022-10-17T06:30:13.000Z,60.16
2022-10-17T06:32:41.086Z,60.05
2022-10-17T06:35:10.978Z,60.10
2022-10-17T06:37:39.576Z,59.96
2022-10-17T06:40:12.343Z,60.11
2022-10-17T06:42:41.251Z,60.05
2022-10-17T06:45:26.215Z,60.15
2022-10-17T06:48:30.042Z,60.12
2022-10-17T06:51:18.365Z,60.10
2022-10-17T06:53:50.947Z,60.37
2022-10-17T06:56:35.166Z,60.44
2022-10-17T06:59:32.481Z,60.45
2022-10-17T07:02:12.750Z,60.41
2022-10-17T07:04:40.865Z,60.28
2022-10-17T07:07:10.251Z,60.34
2022-10-17T07:09:38.706Z,60.11
2022-10-17T07:12:08.538Z,60.02
2022-10-17T07:14:37.047Z,60.23
2022-10-17T07:17:07.029Z,60.26
2022-10-17T07:19:35.171Z,60.33
2022-10-17T07:22:03.648Z,60.53
2022-10-17T07:24:34.887Z,60.23
2022-10-17T07:27:15.077Z,60.45
2022-10-17T07:29:43.438Z,60.32
2022-10-17T07:32:22.421Z,60.49
2022-10-17T07:34:50.756Z,60.75
2022-10-17T07:37:19.330Z,60.67
2022-10-17T07:39:56.590Z,60.78
2022-10-17T07:42:24.916Z,60.66
2022-10-17T07:44:54.827Z,60.54
2022-10-17T07:47:23.943Z,60.62
2022-10-17T07:49:53.363Z,60.61
2022-10-17T07:52:21.434Z,60.60
2022-10-17T07:54:49.425Z,60.45
2022-10-17T07:57:19.538Z,60.38
2022-10-17T07:59:48.057Z,60.39
2022-10-17T08:02:18.886Z,60.50
2022-10-17T08:04:46.908Z,60.40
2022-10-17T08:07:22.034Z,60.39
2022-10-17T08:09:51.753Z,60.40
2022-10-17T08:12:23.499Z,60.24
2022-10-17T08:14:52.944Z,60.35
2022-10-17T08:17:21.730Z,60.25
2022-10-17T08:19:49.696Z,60.28
2022-10-17T08:22:17.749Z,60.35
2022-10-17T08:24:46.370Z,60.24
2022-10-17T08:27:14.489Z,60.33
2022-10-17T08:29:44.013Z,60.11
2022-10-17T08:32:12.081Z,60.16
2022-10-17T08:34:40.057Z,60.02
2022-10-17T08:37:08.186Z,59.79
2022-10-17T08:39:36.294Z,59.73
2022-10-17T08:42:28.922Z,59.68
2022-10-17T08:45:00.745Z,59.53
2022-10-17T08:47:29.854Z,59.46
2022-10-17T08:49:59.098Z,59.44
2022-10-17T08:52:33.854Z,59.25
2022-10-17T08:55:01.829Z,58.99
2022-10-17T08:57:30.058Z,58.98
2022-10-17T08:59:59.925Z,58.96
2022-10-17T09:02:40.889Z,58.68
2022-10-17T09:05:30.462Z,58.16
2022-10-17T09:08:04.106Z,57.65
2022-10-17T09:10:36.808Z,57.45
2022-10-17T09:13:11.441Z,57.38
2022-10-17T09:15:50.762Z,57.66
2022-10-17T09:18:21.939Z,57.58
2022-10-17T09:20:52.926Z,57.56
2022-10-17T09:23:22.525Z,57.17
2022-10-17T09:25:51.896Z,56.77
2022-10-17T09:28:22.435Z,56.50
2022-10-17T09:30:55.537Z,56.67
2022-10-17T09:33:35.443Z,56.49
2022-10-17T09:36:18.483Z,56.16
2022-10-17T09:38:49.368Z,56.38
2022-10-17T09:41:43.545Z,56.03
2022-10-17T09:44:18.701Z,55.13
2022-10-17T09:46:58.996Z,54.49
2022-10-17T09:49:30.991Z,53.75
2022-10-17T09:51:59.023Z,53.71
2022-10-17T09:54:30.411Z,53.35
2022-10-17T09:56:59.917Z,53.45
2022-10-17T09:59:32.773Z,53.04
2022-10-17T10:02:21.963Z,52.99
2022-10-17T10:05:09.555Z,52.40
2022-10-17T10:07:40.119Z,51.57
2022-10-17T10:10:10.015Z,51.65
2022-10-17T10:12:41.905Z,51.64
2022-10-17T10:15:34.614Z,51.42
2022-10-17T10:18:04.394Z,51.09
2022-10-17T10:20:37.779Z,51.19
2022-10-17T10:23:15.996Z,50.81
2022-10-17T10:25:55.665Z,50.61
2022-10-17T10:28:29.998Z,50.87
2022-10-17T10:30:59.073Z,50.41
2022-10-17T10:33:29.207Z,50.00
2022-10-17T10:36:05.580Z,49.53
2022-10-17T10:38:34.648Z,49.04
2022-10-17T10:41:08.559Z,49.07
2022-10-17T10:43:37.867Z,48.79
2022-10-17T10:46:07.771Z,48.98
2022-10-17T10:48:37.688Z,49.18
2022-10-17T10:51:06.567Z,49.07
2022-10-17T10:53:43.039Z,49.10
2022-10-17T10:56:14.528Z,48.67
2022-10-17T10:58:48.807Z,48.94
2022-10-17T11:01:20.367Z,48.98
2022-10-17T11:03:57.478Z,48.71
2022-10-17T11:06:28.785Z,49.17
2022-10-17T11:09:07.351Z,48.66
2022-10-17T11:11:41.315Z,48.52
2022-10-17T11:14:13.823Z,48.13
2022-10-17T11:16:46.144Z,48.53
2022-10-17T11:19:18.642Z,49.01
2022-10-17T11:21:48.750Z,49.64
2022-10-17T11:24:22.817Z,50.29
2022-10-17T11:26:56.167Z,50.68
2022-10-17T11:29:28.351Z,50.78
2022-10-17T11:31:56.839Z,50.74
2022-10-17T11:34:30.252Z,50.94
2022-10-17T11:37:03.035Z,51.00
2022-10-17T11:39:36.076Z,51.24
2022-10-17T11:42:07.910Z,51.27
2022-10-17T11:44:36.724Z,51.55
2022-10-17T11:47:06.249Z,51.21
2022-10-17T11:49:40.216Z,51.55
2022-10-17T11:52:26.958Z,51.54
2022-10-17T11:55:10.960Z,51.46
2022-10-17T11:57:46.143Z,51.18
2022-10-17T12:00:23.345Z,51.00
2022-10-17T12:02:54.624Z,50.06
2022-10-17T12:05:27.799Z,49.60
2022-10-17T12:08:00.761Z,49.46
2022-10-17T12:10:36.953Z,49.33
2022-10-17T12:13:42.390Z,49.39
2022-10-17T12:16:39.602Z,49.89
2022-10-17T12:19:34.983Z,50.36
2022-10-17T12:22:21.629Z,50.45
2022-10-17T12:25:03.180Z,49.91
2022-10-17T12:27:47.479Z,49.86
2022-10-17T12:30:24.769Z,50.00
2022-10-17T12:33:21.952Z,50.27
2022-10-17T12:35:52.377Z,50.70
2022-10-17T12:38:26.500Z,50.96
2022-10-17T12:41:02.030Z,50.81
2022-10-17T12:46:46.798Z,50.10
2022-10-17T12:49:39.342Z,50.33
2022-10-17T12:52:21.215Z,50.10
2022-10-17T12:55:13.214Z,50.26
2022-10-17T12:57:45.714Z,50.29
2022-10-17T13:00:24.198Z,49.69
2022-10-17T13:02:54.500Z,48.84
2022-10-17T13:05:28.472Z,48.94
2022-10-17T13:07:56.799Z,49.12
2022-10-17T13:10:28.492Z,48.85
2022-10-17T13:13:04.435Z,48.59
2022-10-17T13:15:33.018Z,48.66
2022-10-17T13:18:01.636Z,48.37
2022-10-17T13:20:31.846Z,48.41
2022-10-17T13:23:00.151Z,48.42
2022-10-17T13:25:30.004Z,47.38
2022-10-17T13:28:13.982Z,47.38
2022-10-17T13:30:49.824Z,47.51
2022-10-17T13:33:40.429Z,47.33
2022-10-17T13:36:14.241Z,46.97
2022-10-17T13:38:42.949Z,46.88
2022-10-17T13:44:04.229Z,46.52
2022-10-17T13:46:38.910Z,46.26
2022-10-17T13:49:25.871Z,45.67
2022-10-17T13:51:56.338Z,44.90
2022-10-17T13:54:34.258Z,44.77
2022-10-17T13:57:05.170Z,44.51
2022-10-17T13:59:35.704Z,44.63
2022-10-17T14:02:04.264Z,45.01
2022-10-17T14:04:44.732Z,45.67
2022-10-17T14:07:24.601Z,45.85
2022-10-17T14:09:52.898Z,45.42
2022-10-17T14:12:23.407Z,45.46
2022-10-17T14:15:10.749Z,45.62
2022-10-17T14:17:39.423Z,46.02
2022-10-17T14:20:40.766Z,45.69
2022-10-17T14:23:21.079Z,45.74
2022-10-17T14:25:44.448Z,46.08
2022-10-17T14:28:18.512Z,45.96
2022-10-17T14:31:02.697Z,46.14
2022-10-17T14:33:33.364Z,46.25
2022-10-17T14:36:03.134Z,46.31
2022-10-17T14:38:31.182Z,46.22
2022-10-17T14:41:23.293Z,46.62
2022-10-17T14:43:58.024Z,46.59
2022-10-17T14:46:26.475Z,46.38
2022-10-17T14:48:57.476Z,46.85
2022-10-17T14:51:25.916Z,47.26
2022-10-17T14:54:05.765Z,47.19
2022-10-17T14:56:38.945Z,47.46
2022-10-17T14:59:21.559Z,47.11
2022-10-17T15:01:58.346Z,47.19
2022-10-17T15:04:26.402Z,47.39
2022-10-17T15:06:55.499Z,46.91
2022-10-17T15:09:31.077Z,46.99
2022-10-17T15:12:01.090Z,47.20
2022-10-17T15:14:30.602Z,46.83
2022-10-17T15:16:58.894Z,46.95
2022-10-17T15:19:27.039Z,46.91
2022-10-17T15:21:55.143Z,46.88
2022-10-17T15:24:23.376Z,46.82
2022-10-17T15:26:52.126Z,46.91
2022-10-17T15:29:20.182Z,46.73
2022-10-17T15:31:50.038Z,47.09
2022-10-17T15:34:18.143Z,47.24
2022-10-17T15:36:51.934Z,47.94
2022-10-17T15:39:20.096Z,47.88
2022-10-17T15:41:51.927Z,47.16
2022-10-17T15:44:22.039Z,46.38
2022-10-17T15:46:51.643Z,45.33
2022-10-17T15:49:19.768Z,44.49
2022-10-17T15:51:51.707Z,42.52
2022-10-17T15:54:23.457Z,42.31
2022-10-17T15:56:57.932Z,42.71
2022-10-17T15:59:30.581Z,43.28
2022-10-17T16:02:00.007Z,44.03
2022-10-17T16:04:30.765Z,44.66
2022-10-17T16:07:01.612Z,45.11
2022-10-17T16:09:30.055Z,45.20
2022-10-17T16:11:58.051Z,45.84
2022-10-17T16:14:26.243Z,46.10
2022-10-17T16:16:54.243Z,46.37
2022-10-17T16:19:23.722Z,46.37
2022-10-17T16:21:51.679Z,46.86
2022-10-17T16:24:20.924Z,46.71
2022-10-17T16:26:48.834Z,47.42
2022-10-17T16:29:16.941Z,47.11
2022-10-17T16:31:45.943Z,47.63
2022-10-17T16:34:14.595Z,47.47
2022-10-17T16:36:44.045Z,47.90
2022-10-17T16:39:12.428Z,47.90
2022-10-17T16:41:41.089Z,47.92
2022-10-17T16:44:10.246Z,48.03
2022-10-17T16:46:38.712Z,48.35
2022-10-17T16:49:06.975Z,48.50
2022-10-17T16:51:35.999Z,48.92
2022-10-17T16:54:13.605Z,49.07
2022-10-17T16:56:42.668Z,49.51
2022-10-17T16:59:10.946Z,49.71
2022-10-17T17:01:39.226Z,49.52
2022-10-17T17:04:09.151Z,50.04
2022-10-17T17:06:38.268Z,50.20
2022-10-17T17:09:09.275Z,50.53
2022-10-17T17:11:37.697Z,50.62
2022-10-17T17:14:06.148Z,50.82
2022-10-17T17:16:34.848Z,51.35
2022-10-17T17:19:04.522Z,51.27
2022-10-17T17:21:32.679Z,51.51
2022-10-17T17:24:03.540Z,51.65
2022-10-17T17:26:36.235Z,51.88
2022-10-17T17:29:04.599Z,52.25
2022-10-17T17:31:33.650Z,52.30
2022-10-17T17:34:01.932Z,52.66
2022-10-17T17:36:31.262Z,52.73
2022-10-17T17:39:00.851Z,52.75
2022-10-17T17:41:30.761Z,52.97
2022-10-17T17:44:00.470Z,53.00
2022-10-17T17:46:28.715Z,53.27
2022-10-17T17:48:57.068Z,53.28
2022-10-17T17:51:28.269Z,53.56
2022-10-17T17:53:57.898Z,53.68
2022-10-17T17:56:27.531Z,53.57
2022-10-17T17:58:56.977Z,53.88
2022-10-17T18:01:36.806Z,54.09
2022-10-17T18:04:05.149Z,53.99
2022-10-17T18:06:33.310Z,54.27
2022-10-17T18:09:01.613Z,54.23
2022-10-17T18:11:29.757Z,54.27
2022-10-17T18:13:58.764Z,54.30
2022-10-17T18:16:26.909Z,54.38
2022-10-17T18:18:56.433Z,54.52
2022-10-17T18:21:24.502Z,54.61
2022-10-17T18:23:52.902Z,54.57
2022-10-17T18:26:21.024Z,54.51
2022-10-17T18:28:49.807Z,54.83
2022-10-17T18:31:22.195Z,54.81
2022-10-17T18:33:53.830Z,55.13
2022-10-17T18:36:23.285Z,55.28
2022-10-17T18:38:51.566Z,55.16
2022-10-17T18:41:20.945Z,55.31
2022-10-17T18:43:49.741Z,55.26
2022-10-17T18:46:19.284Z,55.44
2022-10-17T18:48:47.802Z,55.43
2022-10-17T18:51:16.630Z,55.51
2022-10-17T18:53:46.916Z,55.36
2022-10-17T18:56:15.016Z,55.69
2022-10-17T18:58:43.102Z,55.34
2022-10-17T19:01:15.368Z,55.37
2022-10-17T19:03:43.865Z,55.52
2022-10-17T19:06:13.332Z,55.48
2022-10-17T19:08:41.853Z,55.79
2022-10-17T19:11:12.193Z,56.01
2022-10-17T19:13:40.779Z,55.80
2022-10-17T19:16:09.444Z,55.87
2022-10-17T19:18:37.577Z,56.00
2022-10-17T19:21:06.366Z,56.25
2022-10-17T19:23:35.559Z,56.20
2022-10-17T19:26:04.033Z,55.93
2022-10-17T19:28:33.663Z,56.08
2022-10-17T19:31:01.955Z,56.26
2022-10-17T19:33:32.792Z,56.24
2022-10-17T19:36:02.983Z,56.21
2022-10-17T19:38:31.346Z,56.33
2022-10-17T19:43:34.555Z,56.30
2022-10-17T19:46:04.308Z,56.47
2022-10-17T19:48:32.915Z,56.60
2022-10-17T19:51:01.004Z,56.69
2022-10-17T19:53:29.680Z,56.63
2022-10-17T19:56:00.279Z,56.58
2022-10-17T19:58:28.524Z,56.67
2022-10-17T20:01:01.065Z,56.61
2022-10-17T20:03:29.333Z,56.59
2022-10-17T20:05:57.516Z,56.54
2022-10-17T20:10:54.490Z,56.73
2022-10-17T20:13:22.819Z,56.69
2022-10-17T20:15:58.951Z,56.64
2022-10-17T20:18:27.602Z,56.62
2022-10-17T20:20:55.800Z,56.67
2022-10-17T20:23:24.362Z,56.74
2022-10-17T20:26:06.823Z,56.96
2022-10-17T20:28:47.276Z,56.70
2022-10-17T20:31:16.922Z,56.82
2022-10-17T20:33:45.257Z,56.91
2022-10-17T20:36:14.137Z,56.82
2022-10-17T20:38:42.475Z,56.84
2022-10-17T20:41:10.858Z,56.91
2022-10-17T20:43:39.019Z,56.93
2022-10-17T20:46:22.978Z,56.78
2022-10-17T20:49:00.200Z,56.75
2022-10-17T20:51:28.321Z,56.67
2022-10-17T20:56:27.477Z,56.79
2022-10-17T20:58:59.701Z,56.80
2022-10-17T21:01:28.237Z,56.67
2022-10-17T21:04:06.163Z,56.89
2022-10-17T21:06:38.923Z,56.85
2022-10-17T21:09:07.194Z,56.65
2022-10-17T21:11:35.257Z,56.89
2022-10-17T21:14:04.474Z,56.72
2022-10-17T21:16:33.345Z,57.02
2022-10-17T21:19:03.242Z,56.92
2022-10-17T21:21:33.819Z,57.06
2022-10-17T21:24:03.110Z,57.06
2022-10-17T21:26:32.924Z,57.11
2022-10-17T21:29:05.067Z,57.04
2022-10-17T21:31:33.805Z,57.01
2022-10-17T21:34:06.510Z,56.87
2022-10-17T21:36:34.735Z,56.89
2022-10-17T21:39:05.525Z,56.76
2022-10-17T21:41:33.710Z,56.97
2022-10-17T21:44:03.344Z,56.91
2022-10-17T21:46:31.605Z,57.01
2022-10-17T21:49:00.049Z,56.94
2022-10-17T21:51:29.750Z,57.06
2022-10-17T21:53:58.784Z,57.04
2022-10-17T21:56:29.886Z,57.10
2022-10-17T21:58:57.955Z,57.04
2022-10-17T22:01:27.080Z,57.04
2022-10-17T22:03:56.013Z,57.11
2022-10-17T22:06:39.305Z,57.25
2022-10-17T22:09:11.156Z,57.16
2022-10-17T22:11:39.187Z,57.30
2022-10-17T22:14:08.989Z,57.21
2022-10-17T22:16:37.136Z,57.20
2022-10-17T22:19:06.478Z,57.35
2022-10-17T22:21:36.391Z,57.27
2022-10-17T22:24:07.292Z,57.20
2022-10-17T22:26:37.538Z,57.41
2022-10-17T22:29:05.869Z,57.40
2022-10-17T22:31:33.888Z,57.11
2022-10-17T22:34:02.434Z,57.12
2022-10-17T22:36:31.582Z,57.22
2022-10-17T22:38:59.578Z,57.10
2022-10-17T22:41:27.588Z,56.95
2022-10-17T22:43:56.965Z,57.06
2022-10-17T22:46:25.043Z,57.20
2022-10-17T22:48:53.030Z,57.03
2022-10-17T22:51:21.260Z,57.29
2022-10-17T22:57:30.267Z,57.27
2022-10-17T22:59:59.640Z,57.22
2022-10-17T23:02:27.838Z,57.13
2022-10-17T23:04:55.972Z,57.16
2022-10-17T23:07:24.098Z,57.38
2022-10-17T23:09:52.129Z,57.44
2022-10-17T23:12:20.316Z,57.33
2022-10-17T23:14:48.345Z,57.55
2022-10-17T23:17:17.752Z,57.46
2022-10-17T23:19:45.889Z,57.50
2022-10-17T23:22:19.015Z,57.36
2022-10-17T23:24:48.361Z,57.52
2022-10-17T23:27:16.441Z,57.39
2022-10-17T23:29:44.975Z,57.29
2022-10-17T23:32:13.081Z,57.31
2022-10-17T23:34:42.778Z,57.20
2022-10-17T23:37:11.392Z,57.40
2022-10-17T23:39:39.384Z,57.37
2022-10-17T23:42:07.738Z,57.09
2022-10-17T23:44:36.077Z,57.24
2022-10-17T23:47:04.199Z,57.29
2022-10-17T23:49:32.393Z,57.26
2022-10-17T23:52:01.973Z,57.11
2022-10-17T23:54:30.468Z,57.12
2022-10-17T23:56:58.492Z,57.00
2022-10-17T23:59:26.883Z,57.10
